createdAt,value
2018-08-13T00:00:06.900Z,21.20
2018-08-13T00:02:57.790Z,21.20
2018-08-13T00:08:43.920Z,21.10
2018-08-13T00:14:17.181Z,21.00
2018-08-13T00:17:08.216Z,21.00
2018-08-13T00:20:02.341Z,21.00
2018-08-13T00:25:35.329Z,20.90
2018-08-13T00:28:13.509Z,20.90
2018-08-13T00:30:46.323Z,20.90
2018-08-13T00:45:45.449Z,20.80
2018-08-13T00:48:14.242Z,20.80
2018-08-13T00:59:49.966Z,20.80
2018-08-13T01:05:11.869Z,20.80
2018-08-13T01:19:17.341Z,20.70
2018-08-13T01:21:48.146Z,20.60
2018-08-13T01:24:17.531Z,20.70
2018-08-13T01:26:45.561Z,20.60
2018-08-13T01:29:15.326Z,20.60
2018-08-13T01:37:51.970Z,20.60
2018-08-13T01:43:23.181Z,20.50
2018-08-13T01:46:49.177Z,20.30
2018-08-13T01:49:17.099Z,20.30
2018-08-13T01:55:02.777Z,20.30
2018-08-13T01:57:36.547Z,20.30
2018-08-13T02:00:13.543Z,20.30
2018-08-13T02:02:42.828Z,20.30
2018-08-13T02:11:13.448Z,19.90
2018-08-13T02:13:42.349Z,19.90
2018-08-13T02:16:10.971Z,19.90
2018-08-13T02:18:43.413Z,19.90
2018-08-13T02:24:17.897Z,19.80
2018-08-13T02:30:02.471Z,19.90
2018-08-13T02:32:31.602Z,19.90
2018-08-13T02:35:03.849Z,19.90
2018-08-13T02:37:38.804Z,19.80
2018-08-13T02:42:51.065Z,19.90
2018-08-13T02:48:19.538Z,19.90
2018-08-13T02:50:47.509Z,19.90
2018-08-13T02:53:16.472Z,19.90
2018-08-13T02:55:50.319Z,19.80
2018-08-13T02:58:18.497Z,19.70
2018-08-13T03:03:20.191Z,19.70
2018-08-13T03:06:00.689Z,19.70
2018-08-13T03:08:31.666Z,19.70
2018-08-13T03:16:37.972Z,19.70
2018-08-13T03:19:06.472Z,19.50
2018-08-13T03:24:13.005Z,19.40
2018-08-13T03:26:41.812Z,19.40
2018-08-13T03:29:10.319Z,19.30
2018-08-13T03:31:38.751Z,19.30
2018-08-13T03:39:47.837Z,19.40
2018-08-13T03:42:16.300Z,19.40
2018-08-13T03:44:51.567Z,19.40
2018-08-13T03:47:20.123Z,19.40
2018-08-13T03:49:50.475Z,19.40
2018-08-13T03:55:20.403Z,19.40
2018-08-13T03:57:54.182Z,19.40
2018-08-13T04:00:21.957Z,19.30
2018-08-13T04:02:52.384Z,19.30
2018-08-13T04:08:23.916Z,19.20
2018-08-13T04:10:53.612Z,19.30
2018-08-13T04:13:21.752Z,19.20
2018-08-13T04:18:52.729Z,19.30
2018-08-13T04:24:19.328Z,19.30
2018-08-13T04:27:10.945Z,19.30
2018-08-13T04:29:38.856Z,19.40
2018-08-13T04:32:07.485Z,19.40
2018-08-13T04:34:36.769Z,19.40
2018-08-13T04:37:15.880Z,19.40
2018-08-13T04:39:44.116Z,19.40
2018-08-13T04:45:17.160Z,19.30
2018-08-13T04:47:54.780Z,19.30
2018-08-13T04:50:23.134Z,19.30
2018-08-13T04:52:54.032Z,19.30
2018-08-13T04:58:52.335Z,19.30
2018-08-13T05:04:16.303Z,19.40
2018-08-13T05:09:33.662Z,19.40
2018-08-13T05:12:09.916Z,19.40
2018-08-13T05:17:44.352Z,19.50
2018-08-13T05:20:14.863Z,19.50
2018-08-13T05:28:48.632Z,19.70
2018-08-13T05:34:20.131Z,19.70
2018-08-13T05:39:50.588Z,19.70
2018-08-13T05:42:18.684Z,19.70
2018-08-13T05:48:24.019Z,19.80
2018-08-13T05:54:03.849Z,19.90
2018-08-13T05:56:41.670Z,19.80
2018-08-13T06:02:18.163Z,19.80
2018-08-13T06:04:46.340Z,19.90
2018-08-13T06:07:41.360Z,19.90
2018-08-13T06:10:15.454Z,20.00
2018-08-13T06:19:07.602Z,20.00
2018-08-13T06:21:37.192Z,20.00
2018-08-13T06:24:08.109Z,19.90
2018-08-13T06:29:29.197Z,19.50
2018-08-13T06:31:56.946Z,19.70
2018-08-13T06:37:01.855Z,19.30
2018-08-13T06:39:30.531Z,19.20
2018-08-13T06:41:58.503Z,19.00
2018-08-13T06:44:26.494Z,19.10
2018-08-13T06:47:07.205Z,18.90
2018-08-13T06:49:34.964Z,18.90
2018-08-13T06:52:02.856Z,18.90
2018-08-13T06:54:30.580Z,18.80
2018-08-13T06:56:58.238Z,18.80
2018-08-13T07:05:18.370Z,18.90
2018-08-13T07:08:04.212Z,19.00
2018-08-13T07:10:33.167Z,19.00
2018-08-13T07:13:02.867Z,19.10
2018-08-13T07:15:30.752Z,19.10
2018-08-13T07:17:59.580Z,19.10
2018-08-13T07:20:27.425Z,19.20
2018-08-13T07:22:56.584Z,19.20
2018-08-13T07:25:31.503Z,19.30
2018-08-13T07:27:59.913Z,19.40
2018-08-13T07:30:28.000Z,19.30
2018-08-13T07:33:07.430Z,19.30
2018-08-13T07:35:42.252Z,19.40
2018-08-13T07:40:44.581Z,19.40
2018-08-13T07:46:02.805Z,19.40
2018-08-13T07:48:32.926Z,19.40
2018-08-13T07:51:01.589Z,19.40
2018-08-13T07:53:29.538Z,19.50
2018-08-13T07:56:04.312Z,19.60
2018-08-13T07:58:32.246Z,19.60
2018-08-13T08:01:04.653Z,19.70
2018-08-13T08:03:32.586Z,19.70
2018-08-13T08:06:00.372Z,19.70
2018-08-13T08:08:28.142Z,19.80
2018-08-13T08:10:56.774Z,19.80
2018-08-13T08:13:25.003Z,19.80
2018-08-13T08:15:52.938Z,19.70
2018-08-13T08:18:28.401Z,19.80
2018-08-13T08:21:03.691Z,19.80
2018-08-13T08:23:32.698Z,19.90
2018-08-13T08:26:00.506Z,19.90
2018-08-13T08:28:30.287Z,20.00
2018-08-13T08:30:58.106Z,20.00
2018-08-13T08:33:26.476Z,20.00
2018-08-13T08:35:54.300Z,20.10
2018-08-13T08:38:23.377Z,20.10
2018-08-13T08:40:51.511Z,20.00
2018-08-13T08:43:19.053Z,20.00
2018-08-13T08:45:49.314Z,20.00
2018-08-13T08:48:17.320Z,20.00
2018-08-13T08:50:45.489Z,20.00
2018-08-13T08:53:13.598Z,20.10
2018-08-13T08:55:41.978Z,20.10
2018-08-13T08:58:10.447Z,20.10
2018-08-13T09:00:38.777Z,20.10
2018-08-13T09:03:07.233Z,20.10
2018-08-13T09:05:35.355Z,20.00
2018-08-13T09:08:03.194Z,20.10
2018-08-13T09:10:31.177Z,20.10
2018-08-13T09:12:59.387Z,20.10
2018-08-13T09:15:27.384Z,20.10
2018-08-13T09:18:06.684Z,20.10
2018-08-13T09:20:45.792Z,20.20
2018-08-13T09:23:24.923Z,20.20
2018-08-13T09:26:04.571Z,20.20
2018-08-13T09:28:44.697Z,20.20
2018-08-13T09:33:25.269Z,20.20
2018-08-13T09:38:40.651Z,20.30
2018-08-13T09:41:13.207Z,20.30
2018-08-13T09:46:39.143Z,20.30
2018-08-13T09:49:07.566Z,20.40
2018-08-13T09:51:47.384Z,20.40
2018-08-13T09:54:18.141Z,20.40
2018-08-13T09:56:47.975Z,20.50
2018-08-13T09:59:15.982Z,20.50
2018-08-13T10:01:44.133Z,20.60
2018-08-13T10:04:13.679Z,20.50
2018-08-13T10:06:42.251Z,20.50
2018-08-13T10:09:11.460Z,20.60
2018-08-13T10:11:39.228Z,20.60
2018-08-13T10:14:07.354Z,20.60
2018-08-13T10:16:35.250Z,20.70
2018-08-13T10:19:04.022Z,20.70
2018-08-13T10:21:33.583Z,20.70
2018-08-13T10:24:02.068Z,20.70
2018-08-13T10:26:30.312Z,20.80
2018-08-13T10:29:17.809Z,20.80
2018-08-13T10:31:45.714Z,20.80
2018-08-13T10:34:14.427Z,20.80
2018-08-13T10:36:42.484Z,20.80
2018-08-13T10:39:11.900Z,20.90
2018-08-13T10:41:46.786Z,20.90
2018-08-13T10:44:20.405Z,21.00
2018-08-13T10:46:48.182Z,20.90
2018-08-13T10:49:16.076Z,20.90
2018-08-13T10:52:01.136Z,20.90
2018-08-13T10:54:31.862Z,20.90
2018-08-13T10:57:05.536Z,20.90
2018-08-13T10:59:33.302Z,20.90
2018-08-13T11:02:11.315Z,21.00
2018-08-13T11:04:45.803Z,21.00
2018-08-13T11:07:15.049Z,21.00
2018-08-13T11:09:43.060Z,21.00
2018-08-13T11:12:13.613Z,21.10
2018-08-13T11:14:56.190Z,21.10
2018-08-13T11:17:24.260Z,21.10
2018-08-13T11:19:52.067Z,21.10
2018-08-13T11:22:21.815Z,21.10
2018-08-13T11:24:54.048Z,21.20
2018-08-13T11:36:21.949Z,21.20
2018-08-13T11:39:10.298Z,21.30
2018-08-13T11:41:38.367Z,21.20
2018-08-13T11:44:06.116Z,21.30
2018-08-13T11:49:27.603Z,21.30
2018-08-13T11:54:59.204Z,21.30
2018-08-13T11:57:27.273Z,21.20
2018-08-13T12:00:15.271Z,21.20
2018-08-13T12:02:47.260Z,21.20
2018-08-13T12:05:21.749Z,21.20
2018-08-13T12:07:50.443Z,21.20
2018-08-13T12:10:19.912Z,21.20
2018-08-13T12:12:52.039Z,21.20
2018-08-13T12:15:22.621Z,21.30
2018-08-13T12:17:50.559Z,21.30
2018-08-13T12:20:19.971Z,21.20
2018-08-13T12:25:53.257Z,21.30
2018-08-13T12:28:26.150Z,21.30
2018-08-13T12:31:07.011Z,21.30
2018-08-13T12:33:34.902Z,21.40
2018-08-13T12:36:08.829Z,21.30
2018-08-13T12:38:36.843Z,21.30
2018-08-13T12:41:11.689Z,21.40
2018-08-13T12:43:40.507Z,21.40
2018-08-13T12:49:05.582Z,21.40
2018-08-13T12:51:33.607Z,21.50
2018-08-13T12:54:02.493Z,21.50
2018-08-13T12:56:30.458Z,21.50
2018-08-13T12:59:11.217Z,21.60
2018-08-13T13:01:45.560Z,21.50
2018-08-13T13:04:31.077Z,21.60
2018-08-13T13:07:04.211Z,21.60
2018-08-13T13:12:08.083Z,21.70
2018-08-13T13:14:36.146Z,21.70
2018-08-13T13:17:04.072Z,21.80
2018-08-13T13:19:32.132Z,21.80
2018-08-13T13:22:01.114Z,21.90
2018-08-13T13:24:29.367Z,22.10
2018-08-13T13:26:58.100Z,22.10
2018-08-13T13:29:26.148Z,22.10
2018-08-13T13:31:54.310Z,22.00
2018-08-13T13:34:27.352Z,22.00
2018-08-13T13:36:55.124Z,22.10
2018-08-13T13:45:04.036Z,22.10
2018-08-13T13:47:31.804Z,22.20
2018-08-13T13:49:59.603Z,22.30
2018-08-13T13:52:27.951Z,22.30
2018-08-13T13:58:00.785Z,22.30
2018-08-13T14:00:40.771Z,22.30
2018-08-13T14:03:08.990Z,22.40
2018-08-13T14:05:36.876Z,22.40
2018-08-13T14:08:09.982Z,22.30
2018-08-13T14:10:38.032Z,22.30
2018-08-13T14:13:07.083Z,22.30
2018-08-13T14:15:35.525Z,22.40
2018-08-13T14:18:03.935Z,22.40
2018-08-13T14:20:33.175Z,22.40
2018-08-13T14:23:07.677Z,22.40
2018-08-13T14:25:35.664Z,22.40
2018-08-13T14:28:04.064Z,22.50
2018-08-13T14:30:33.044Z,22.50
2018-08-13T14:33:10.729Z,22.60
2018-08-13T14:35:39.711Z,22.60
2018-08-13T14:38:10.414Z,22.60
2018-08-13T14:40:39.757Z,22.70
2018-08-13T14:43:08.287Z,22.70
2018-08-13T14:45:37.481Z,22.70
2018-08-13T14:48:05.801Z,22.70
2018-08-13T14:50:33.639Z,22.80
2018-08-13T14:53:09.639Z,22.80
2018-08-13T14:55:37.799Z,22.80
2018-08-13T14:58:05.876Z,22.80
2018-08-13T15:00:35.370Z,22.80
2018-08-13T15:03:03.975Z,22.90
2018-08-13T15:05:31.707Z,22.90
2018-08-13T15:08:00.625Z,22.90
2018-08-13T15:10:29.310Z,22.90
2018-08-13T15:12:58.880Z,23.00
2018-08-13T15:15:28.497Z,22.90
2018-08-13T15:17:56.579Z,23.00
2018-08-13T15:20:26.410Z,23.00
2018-08-13T15:23:04.267Z,23.00
2018-08-13T15:25:33.717Z,23.10
2018-08-13T15:28:03.100Z,23.10
2018-08-13T15:30:32.017Z,23.10
2018-08-13T15:33:00.680Z,23.10
2018-08-13T15:35:42.819Z,23.20
2018-08-13T15:38:15.413Z,23.20
2018-08-13T15:40:43.400Z,23.20
2018-08-13T15:43:12.118Z,23.30
2018-08-13T15:45:39.928Z,23.20
2018-08-13T15:48:08.696Z,23.30
2018-08-13T15:50:45.268Z,23.30
2018-08-13T15:53:16.291Z,23.30
2018-08-13T15:55:44.453Z,23.40
2018-08-13T15:58:12.263Z,23.40
2018-08-13T16:00:43.392Z,23.30
2018-08-13T16:03:18.218Z,23.40
2018-08-13T16:05:46.395Z,23.30
2018-08-13T16:08:15.714Z,23.30
2018-08-13T16:10:49.499Z,23.30
2018-08-13T16:16:23.024Z,23.40
2018-08-13T16:18:51.555Z,23.40
2018-08-13T16:21:21.464Z,23.40
2018-08-13T16:26:38.683Z,23.40
2018-08-13T16:29:06.707Z,23.40
2018-08-13T16:31:34.859Z,23.40
2018-08-13T16:34:02.738Z,23.40
2018-08-13T16:36:31.520Z,23.40
2018-08-13T16:38:59.753Z,23.40
2018-08-13T16:41:27.852Z,23.50
2018-08-13T16:43:56.047Z,23.50
2018-08-13T16:46:25.804Z,23.50
2018-08-13T16:48:55.035Z,23.50
2018-08-13T16:51:23.389Z,23.60
2018-08-13T16:53:57.499Z,23.50
2018-08-13T16:56:25.883Z,23.50
2018-08-13T16:58:54.496Z,23.50
2018-08-13T17:01:23.611Z,23.40
2018-08-13T17:04:02.365Z,23.40
2018-08-13T17:06:30.175Z,23.40
2018-08-13T17:08:58.971Z,23.50
2018-08-13T17:14:13.138Z,23.50
2018-08-13T17:19:23.442Z,23.70
2018-08-13T17:21:51.967Z,23.80
2018-08-13T17:30:11.755Z,24.20
2018-08-13T17:32:45.697Z,24.30
2018-08-13T17:38:09.484Z,24.40
2018-08-13T17:43:16.444Z,24.40
2018-08-13T17:45:51.610Z,24.40
2018-08-13T17:48:38.454Z,24.40
2018-08-13T17:54:05.446Z,24.20
2018-08-13T17:56:36.377Z,24.20
2018-08-13T17:59:05.419Z,24.20
2018-08-13T18:01:46.057Z,24.20
2018-08-13T18:04:19.356Z,24.00
2018-08-13T18:06:50.752Z,24.10
2018-08-13T18:12:02.603Z,24.00
2018-08-13T18:14:31.831Z,24.00
2018-08-13T18:17:03.873Z,23.90
2018-08-13T18:19:31.665Z,23.90
2018-08-13T18:22:00.982Z,23.80
2018-08-13T18:24:29.096Z,23.90
2018-08-13T18:26:57.324Z,23.80
2018-08-13T18:29:25.355Z,23.70
2018-08-13T18:31:53.552Z,23.20
2018-08-13T18:34:22.585Z,23.00
2018-08-13T18:36:50.660Z,22.80
2018-08-13T18:39:18.528Z,22.80
2018-08-13T18:41:46.327Z,22.50
2018-08-13T18:44:15.241Z,22.40
2018-08-13T18:46:43.096Z,22.40
2018-08-13T18:49:11.174Z,22.40
2018-08-13T18:51:39.156Z,22.40
2018-08-13T18:54:06.923Z,22.40
2018-08-13T18:56:34.756Z,22.30
2018-08-13T18:59:02.464Z,22.40
2018-08-13T19:01:30.282Z,22.40
2018-08-13T19:03:58.126Z,22.40
2018-08-13T19:06:25.814Z,22.30
2018-08-13T19:08:53.563Z,22.20
2018-08-13T19:11:21.324Z,22.20
2018-08-13T19:13:49.231Z,22.30
2018-08-13T19:16:17.050Z,22.30
2018-08-13T19:18:45.503Z,22.30
2018-08-13T19:21:13.492Z,22.20
2018-08-13T19:23:42.359Z,22.20
2018-08-13T19:26:10.218Z,22.10
2018-08-13T19:28:38.081Z,22.10
2018-08-13T19:31:05.840Z,22.10
2018-08-13T19:33:33.490Z,22.20
2018-08-13T19:36:01.143Z,22.20
2018-08-13T19:38:29.030Z,22.10
2018-08-13T19:40:56.654Z,22.10
2018-08-13T19:43:24.516Z,22.10
2018-08-13T19:45:52.161Z,22.10
2018-08-13T19:48:19.866Z,21.90
2018-08-13T19:50:47.771Z,21.90
2018-08-13T19:53:15.438Z,21.90
2018-08-13T19:55:43.310Z,21.80
2018-08-13T19:58:11.217Z,21.80
2018-08-13T20:00:38.809Z,21.90
2018-08-13T20:03:10.222Z,21.70
2018-08-13T20:05:37.922Z,21.60
2018-08-13T20:08:05.811Z,21.60
2018-08-13T20:10:33.478Z,21.80
2018-08-13T20:13:01.151Z,21.70
2018-08-13T20:15:29.489Z,21.60
2018-08-13T20:17:57.430Z,21.70
2018-08-13T20:20:25.101Z,21.80
2018-08-13T20:22:52.762Z,21.80
2018-08-13T20:25:20.915Z,21.80
2018-08-13T20:30:47.330Z,21.90
2018-08-13T20:33:15.107Z,21.90
2018-08-13T20:35:43.123Z,21.90
2018-08-13T20:38:11.061Z,22.00
2018-08-13T20:40:38.751Z,21.90
2018-08-13T20:43:06.405Z,22.00
2018-08-13T20:45:34.161Z,22.00
2018-08-13T20:48:01.972Z,22.00
2018-08-13T20:50:31.752Z,22.00
2018-08-13T20:52:59.816Z,22.00
2018-08-13T20:55:28.507Z,21.90
2018-08-13T20:57:56.214Z,21.90
2018-08-13T21:00:25.694Z,21.90
2018-08-13T21:02:53.627Z,21.90
2018-08-13T21:05:21.539Z,21.80
2018-08-13T21:07:49.781Z,21.90
2018-08-13T21:10:20.657Z,21.80
2018-08-13T21:12:48.919Z,21.80
2018-08-13T21:15:17.260Z,21.80
2018-08-13T21:17:45.402Z,21.80
2018-08-13T21:20:18.016Z,21.80
2018-08-13T21:22:45.707Z,21.70
2018-08-13T21:25:13.593Z,21.70
2018-08-13T21:27:42.434Z,21.70
2018-08-13T21:30:10.494Z,21.70
2018-08-13T21:32:44.826Z,21.60
2018-08-13T21:35:18.273Z,21.60
2018-08-13T21:37:46.233Z,21.60
2018-08-13T21:40:15.530Z,21.60
2018-08-13T21:42:43.807Z,21.60
2018-08-13T21:45:13.050Z,21.60
2018-08-13T21:47:44.081Z,21.60
2018-08-13T21:50:16.632Z,21.60
2018-08-13T21:52:46.193Z,21.60
2018-08-13T21:55:13.937Z,21.50
2018-08-13T21:57:42.702Z,21.50
2018-08-13T22:00:46.540Z,21.50
2018-08-13T22:03:15.462Z,21.50
2018-08-13T22:05:43.272Z,21.40
2018-08-13T22:08:12.278Z,21.40
2018-08-13T22:10:39.883Z,21.40
2018-08-13T22:13:07.967Z,21.30
2018-08-13T22:15:35.670Z,21.40
2018-08-13T22:18:04.780Z,21.40
2018-08-13T22:20:34.134Z,21.30
2018-08-13T22:23:02.735Z,21.40
2018-08-13T22:25:33.651Z,21.30
2018-08-13T22:28:01.496Z,21.30
2018-08-13T22:30:30.967Z,21.30
2018-08-13T22:32:58.763Z,21.30
2018-08-13T22:35:26.676Z,21.30
2018-08-13T22:37:54.491Z,21.30
2018-08-13T22:40:22.214Z,21.30
2018-08-13T22:42:50.026Z,21.30
2018-08-13T22:45:23.144Z,21.30
2018-08-13T22:47:50.991Z,21.20
2018-08-13T22:50:18.905Z,21.10
2018-08-13T22:52:47.026Z,21.00
2018-08-13T22:55:16.284Z,21.00
2018-08-13T22:57:44.150Z,21.00
2018-08-13T23:00:14.009Z,21.00
2018-08-13T23:02:42.411Z,21.00
2018-08-13T23:05:12.825Z,21.00
2018-08-13T23:07:41.001Z,21.10
2018-08-13T23:10:16.337Z,21.00
2018-08-13T23:12:44.496Z,21.00
2018-08-13T23:15:13.671Z,21.00
2018-08-13T23:17:42.245Z,21.10
2018-08-13T23:20:28.306Z,21.10
2018-08-13T23:23:00.378Z,21.10
2018-08-13T23:25:28.644Z,21.10
2018-08-13T23:27:57.826Z,21.10
2018-08-13T23:30:25.620Z,21.00
2018-08-13T23:32:54.250Z,21.00
2018-08-13T23:35:26.544Z,20.90
2018-08-13T23:37:54.518Z,20.80
2018-08-13T23:40:22.846Z,20.90
2018-08-13T23:42:50.692Z,20.90
2018-08-13T23:45:23.132Z,20.90
2018-08-13T23:47:50.920Z,20.80
2018-08-13T23:50:20.837Z,20.80
2018-08-13T23:52:50.675Z,20.80
2018-08-13T23:55:37.935Z,20.90
2018-08-13T23:58:10.442Z,20.90
